Terminal Aerodrome Forecast
Issued by NWS Brownsville, TX

Home | Current Version | Previous Version | Text Only | Print | Product List | Glossary On
Versions: 1 2 3 4 5 6 7 8 9 10 11 12 13 14 15 16
523
FTUS44 KBRO 230537
TAFMFE
TAF
KMFE 230537Z 2306/2406 VRB03KT P6SM SCT250
     FM231400 09009KT P6SM SCT030
     FM232100 10007KT P6SM BKN250=

USA.gov is the U.S. government's official web portal to all federal, state and local government web resources and services.